首页
METAR-TAF:

METAR-TAF

机场 :

蒙德马桑, 法国

纬度: 43-55N, 经度: 000-30W, 海拔: 62米

当前天气观测

该预报发布于22分钟前的15:00 UTC
风速6节,风向东转东南,在东转东北南转南东之间变化
温度 30°C
湿度 35%
气压 1013 hPa
能见度10公里或以上
1500米以下无云,无积雨云

METAR: LFBM 171500Z AUTO 11006KT 060V160 CAVOK 30/13 Q1013 NOSIG

时间: 17:22 (15:22 UTC)

预报

该预报发布于1小时和22分钟前的14:00 UTC
预报有效从17日的 15点(UTC)到 18日的 15点(UTC)
风速10节,风向
能见度10公里或以上
1500米以下无云,无积雨云

TAF: LFBM 171400Z 1715/1815 09010KT CAVOK

超过4000个机场的气象观测和天气预报(METAR&TAF报告)。

可查询的气象台以黄色和红色小点在地图上表示。

将鼠标移到小点上方,可查看气象台名称。

然后点击查看天气观测和预报。

如需切换地图:点击带黑十字的绿色按钮放大地图;点击带横线的绿色按钮缩小地图;或者点击绿色箭头查看邻近地区的地图。


METAR-TAF: